Time;durP1;ratioP1;P1;durP2;ratioP2;P2;SDS_P1;SDS_P2;PMS_P1;PMS_P2;Temp;Humidity;BMP_temperature;BMP_pressure;BME280_temperature;BME280_humidity;BME280_pressure;Samples;Min_cycle;Max_cycle;Signal;HPM_P1;HPM_P2
2023/06/26 00:02:19;;;;;;;;;4.00;4.00;;;;;23.00;69.27;101597.53;5000592;28;45428;-78
2023/06/26 00:04:53;;;;;;;;;3.00;3.00;;;;;22.51;70.19;101537.97;5001723;28;46296;-78
2023/06/26 00:07:36;;;;;;;;;4.00;2.33;;;;;22.93;70.34;101608.97;4985189;28;45328;-78
2023/06/26 00:10:46;;;;;;;;;;;;;;;;;;;;;
2023/06/26 00:13:23;;;;;;;;;4.00;4.00;;;;;22.25;70.46;101515.91;4986603;28;71878;-77
2023/06/26 00:16:13;;;;;;;;;3.33;3.33;;;;;22.30;71.36;101537.94;4977525;28;45490;-78
2023/06/26 00:19:09;;;;;;;;;5.00;3.50;;;;;22.77;71.67;101617.53;4976723;28;45731;-77
2023/06/26 00:22:03;;;;;;;;;5.00;4.00;;;;;22.18;71.22;101534.44;4962099;28;45591;-78
2023/06/26 00:25:22;;;;;;;;;;;;;;;;;;;;;
2023/06/26 00:28:27;;;;;;;;;5.67;5.00;;;;;22.58;72.55;101618.19;5030035;28;74488;-78
2023/06/26 00:31:09;;;;;;;;;6.00;4.00;;;;;22.15;73.08;101556.22;5038761;28;45368;-78
2023/06/26 00:33:45;;;;;;;;;4.00;4.00;;;;;22.49;73.08;101624.34;5017579;28;45407;-78
2023/06/26 00:36:26;;;;;;;;;4.67;4.67;;;;;21.95;73.86;101538.19;5021564;28;45479;-78
2023/06/26 00:38:54;;;;;;;;;4.00;4.00;;;;;22.21;75.35;101595.31;5021447;28;46847;-78
2023/06/26 00:41:45;;;;;;;;;6.00;5.00;;;;;22.43;74.08;101642.88;5039228;28;45297;-77
2023/06/26 00:44:47;;;;;;;;;3.67;3.67;;;;;22.00;73.91;101568.28;5013701;28;45537;-78
2023/06/26 00:50:44;;;;;;;;;5.00;3.67;;;;;22.03;74.10;101605.75;5018697;28;45314;-78
2023/06/26 00:53:25;;;;;;;;;5.00;5.00;;;;;21.64;73.04;101537.13;5028586;28;45384;-77
2023/06/26 00:56:18;;;;;;;;;6.67;5.00;;;;;22.21;73.69;101650.06;4998736;28;45465;-78
2023/06/26 00:58:54;;;;;;;;;5.67;5.00;;;;;22.14;73.47;101654.25;5037055;28;45452;-78
2023/06/26 01:01:21;;;;;;;;;8.00;5.67;;;;;21.71;74.01;101591.34;5011351;28;46658;-78
2023/06/26 01:04:06;;;;;;;;;4.33;4.33;;;;;21.57;73.74;101567.38;5036632;28;45563;-78
2023/06/26 01:06:42;;;;;;;;;5.67;5.00;;;;;21.44;75.71;101569.34;5017744;28;45318;-78
2023/06/26 01:09:22;;;;;;;;;4.33;4.33;;;;;21.44;76.09;101589.03;5033992;28;45670;-78
2023/06/26 01:12:09;;;;;;;;;4.67;4.67;;;;;21.86;75.78;101659.28;5021373;28;47691;-78
2023/06/26 01:14:57;;;;;;;;;4.00;4.00;;;;;21.55;76.68;101615.09;5036684;28;45591;-77
2023/06/26 01:17:51;;;;;;;;;3.67;3.67;;;;;21.87;76.62;101666.34;5031969;28;45344;-78
2023/06/26 01:21:01;;;;;;;;;4.00;4.00;;;;;21.28;76.09;101584.03;5025902;28;45683;-77
2023/06/26 01:23:55;;;;;;;;;5.00;4.67;;;;;21.85;77.24;101676.41;4934237;28;47717;-78
2023/06/26 01:29:25;;;;;;;;;6.67;6.67;;;;;21.48;77.05;101622.81;5024409;28;45652;-78
2023/06/26 01:32:07;;;;;;;;;5.00;5.00;;;;;21.48;77.40;101628.19;5030331;28;45604;-78
2023/06/26 01:35:04;;;;;;;;;5.33;4.33;;;;;21.72;76.89;101674.72;5040209;28;47798;-77
2023/06/26 01:37:38;;;;;;;;;5.00;4.00;;;;;21.37;77.07;101625.50;5009972;28;45437;-77
2023/06/26 01:40:27;;;;;;;;;3.00;3.00;;;;;21.68;77.42;101683.16;5021178;28;45357;-78
2023/06/26 01:46:00;;;;;;;;;7.00;7.00;;;;;21.27;77.41;101641.50;5024843;28;46150;-77
2023/06/26 01:48:56;;;;;;;;;5.33;5.33;;;;;21.16;76.40;101637.97;5029892;28;45577;-77
2023/06/26 01:51:35;;;;;;;;;5.00;4.00;;;;;21.08;78.12;101629.56;5042339;28;45758;-77
2023/06/26 01:54:11;;;;;;;;;4.33;2.67;;;;;20.93;77.90;101611.94;5032806;28;45901;-77
2023/06/26 01:56:57;;;;;;;;;5.33;3.33;;;;;20.84;76.85;101612.69;5028778;28;46281;-77
2023/06/26 01:59:33;;;;;;;;;8.33;3.33;;;;;20.75;76.51;101616.91;5033042;28;45464;-77
2023/06/26 02:02:27;;;;;;;;;5.33;2.33;;;;;21.15;77.03;101676.59;5037993;28;45424;-77
2023/06/26 02:05:05;;;;;;;;;3.00;1.67;;;;;20.67;74.89;101630.09;5021300;28;45643;-77
2023/06/26 02:08:08;;;;;;;;;2.33;2.00;;;;;20.84;75.34;101683.44;5027837;28;47372;-77
2023/06/26 02:10:52;;;;;;;;;3.00;3.00;;;;;21.17;76.62;101726.59;5023348;28;45472;-78
2023/06/26 02:13:26;;;;;;;;;3.00;3.00;;;;;21.13;75.68;101737.75;5035254;28;45431;-78
2023/06/26 02:16:03;;;;;;;;;3.00;3.00;;;;;20.83;76.29;101695.16;5041082;28;45524;-79
2023/06/26 02:18:56;;;;;;;;;5.00;2.00;;;;;20.97;75.64;101747.91;5033988;28;47309;-79
2023/06/26 02:21:35;;;;;;;;;3.00;3.00;;;;;20.66;75.83;101687.50;5040106;28;45829;-78
2023/06/26 02:24:23;;;;;;;;;1.00;1.00;;;;;20.22;74.70;101621.78;5024877;28;45500;-78
2023/06/26 02:27:13;;;;;;;;;2.00;2.00;;;;;20.63;74.29;101702.06;5037971;28;45519;-78
2023/06/26 02:29:43;;;;;;;;;2.00;2.00;;;;;20.27;74.54;101664.47;5059118;28;46372;-79
2023/06/26 02:32:20;;;;;;;;;2.00;2.00;;;;;20.08;75.17;101653.34;5041878;28;45426;-78
2023/06/26 02:35:09;;;;;;;;;4.67;2.67;;;;;20.61;75.70;101751.53;5042066;28;45389;-79
2023/06/26 02:38:12;;;;;;;;;;;;;;;;;;;;;
2023/06/26 02:40:57;;;;;;;;;4.00;2.33;;;;;20.00;76.81;101672.69;5035293;28;74385;-78
2023/06/26 02:43:31;;;;;;;;;2.33;2.33;;;;;19.98;75.93;101657.66;5036291;28;45433;-79
2023/06/26 02:46:11;;;;;;;;;2.00;1.50;;;;;20.37;76.05;101731.81;5041110;28;45329;-78
2023/06/26 02:49:01;;;;;;;;;1.33;1.00;;;;;20.25;76.15;101730.88;5036113;28;45338;-78
2023/06/26 02:51:58;;;;;;;;;1.67;1.67;;;;;19.82;76.23;101660.59;5030668;28;46887;-78
2023/06/26 02:57:44;;;;;;;;;2.67;2.67;;;;;20.30;77.34;101760.09;5044043;28;45628;-79
2023/06/26 03:00:25;;;;;;;;;3.00;1.67;;;;;19.90;78.90;101679.69;5037138;28;45355;-78
2023/06/26 03:03:15;;;;;;;;;2.33;1.67;;;;;20.00;76.98;101714.78;5016643;28;47739;-78
2023/06/26 03:05:45;;;;;;;;;5.33;2.33;;;;;19.67;78.03;101650.94;5033315;28;45228;-78
2023/06/26 03:08:40;;;;;;;;;;;;;;;;;;;;;
2023/06/26 03:11:27;;;;;;;;;3.00;1.33;;;;;19.88;77.18;101711.16;5029575;28;73975;-78
2023/06/26 03:14:07;;;;;;;;;1.00;1.00;;;;;19.91;78.48;101724.38;5039396;28;47347;-78
2023/06/26 03:16:45;;;;;;;;;3.00;2.00;;;;;20.09;77.55;101776.75;5045653;28;45385;-78
2023/06/26 03:19:25;;;;;;;;;3.00;2.33;;;;;19.84;78.67;101735.66;5030662;28;45415;-78
2023/06/26 03:22:17;;;;;;;;;2.67;2.67;;;;;19.95;78.53;101746.50;5044922;28;45406;-78
2023/06/26 03:25:02;;;;;;;;;2.33;1.33;;;;;19.42;79.60;101664.41;5014702;28;45474;-78
2023/06/26 03:27:37;;;;;;;;;3.33;1.67;;;;;19.48;78.93;101701.53;5015619;28;45322;-77
2023/06/26 03:30:22;;;;;;;;;3.00;1.67;;;;;19.48;80.50;101693.47;5047552;28;45341;-78
2023/06/26 03:32:53;;;;;;;;;4.67;3.00;;;;;19.54;80.98;101704.63;5047762;28;45411;-77
2023/06/26 03:35:24;;;;;;;;;4.00;2.33;;;;;19.96;80.22;101786.66;5045864;28;47622;-78
2023/06/26 03:38:02;;;;;;;;;6.00;2.33;;;;;19.93;80.10;101788.69;5021910;28;45424;-78
2023/06/26 03:40:31;;;;;;;;;4.00;2.67;;;;;19.33;80.43;101694.53;5033133;28;45584;-78
2023/06/26 03:43:02;;;;;;;;;2.67;2.67;;;;;19.75;81.22;101780.13;5029663;28;45559;-77
2023/06/26 03:45:47;;;;;;;;;2.33;2.33;;;;;19.15;81.72;101689.47;5014860;28;46795;-78
2023/06/26 03:48:30;;;;;;;;;5.33;3.00;;;;;19.26;83.46;101710.19;5014025;28;45632;-78
2023/06/26 03:54:14;;;;;;;;;;;;;;;;;;;;;
2023/06/26 03:57:01;;;;;;;;;3.33;2.33;;;;;19.29;82.39;101722.53;5037036;28;74780;-78
2023/06/26 03:59:39;;;;;;;;;5.67;2.67;;;;;19.16;82.36;101727.88;5027887;28;45524;-78
2023/06/26 04:02:17;;;;;;;;;4.33;3.67;;;;;19.24;83.81;101734.41;5037466;28;45309;-77
2023/06/26 04:04:45;;;;;;;;;2.33;2.33;;;;;19.32;83.61;101763.41;5036170;28;45460;-78
2023/06/26 04:07:25;;;;;;;;;4.67;3.00;;;;;19.60;82.14;101826.81;5025252;28;45518;-77
2023/06/26 04:09:57;;;;;;;;;6.67;4.00;;;;;19.60;82.56;101830.34;5021435;28;45492;-78
2023/06/26 04:12:42;;;;;;;;;3.67;3.67;;;;;19.13;84.12;101755.75;5031614;28;45341;-78
2023/06/26 04:15:17;;;;;;;;;5.00;5.00;;;;;19.65;85.45;101848.81;5012391;28;45447;-78
2023/06/26 04:17:55;;;;;;;;;6.67;5.33;;;;;19.01;84.77;101745.84;5025111;28;45722;-78
2023/06/26 04:20:29;;;;;;;;;6.33;4.00;;;;;19.45;83.89;101819.81;5035485;28;45543;-78
2023/06/26 04:23:09;;;;;;;;;6.00;4.00;;;;;19.35;84.31;101800.75;5026733;28;45390;-79
2023/06/26 04:25:51;;;;;;;;;7.00;4.00;;;;;19.65;84.17;101867.63;5038657;28;45536;-78
2023/06/26 04:28:34;;;;;;;;;5.67;4.67;;;;;19.00;84.26;101751.31;5027030;28;45457;-78
2023/06/26 04:31:08;;;;;;;;;4.00;3.33;;;;;19.04;84.80;101763.56;5029196;28;45344;-78
2023/06/26 04:33:50;;;;;;;;;5.00;4.00;;;;;19.05;85.38;101768.81;5016694;28;45432;-78
2023/06/26 04:36:33;;;;;;;;;6.33;6.33;;;;;18.95;83.88;101753.44;5020852;28;45476;-78
2023/06/26 04:38:58;;;;;;;;;5.67;4.33;;;;;19.24;85.28;101814.88;5023728;28;47734;-79
2023/06/26 04:41:24;;;;;;;;;5.33;4.33;;;;;19.49;84.46;101862.44;5015363;28;45926;-78
2023/06/26 04:43:49;;;;;;;;;9.00;5.00;;;;;19.49;85.96;101858.88;5046430;28;45367;-79
2023/06/26 04:46:15;;;;;;;;;5.00;3.00;;;;;19.52;84.83;101866.72;5042512;28;45546;-79
2023/06/26 04:48:40;;;;;;;;;6.67;3.67;;;;;19.45;85.58;101852.88;5037202;28;46384;-79
2023/06/26 04:51:05;;;;;;;;;2.67;2.67;;;;;19.40;85.27;101838.03;5034272;28;45384;-78
2023/06/26 04:53:33;;;;;;;;;11.67;7.33;;;;;19.62;86.51;101866.00;5029369;28;45352;-79
2023/06/26 04:56:00;;;;;;;;;3.33;3.33;;;;;19.66;87.07;101847.88;5030228;28;45543;-79
2023/06/26 04:58:26;;;;;;;;;3.33;3.33;;;;;19.73;84.39;101854.53;5023334;28;47181;-79
2023/06/26 05:00:53;;;;;;;;;3.33;3.33;;;;;19.82;83.17;101870.00;5044579;28;45463;-78
2023/06/26 05:03:19;;;;;;;;;2.33;2.33;;;;;19.89;83.57;101875.81;5032128;28;45357;-79
2023/06/26 05:05:45;;;;;;;;;4.33;2.33;;;;;19.90;82.71;101873.00;5038688;28;45496;-79
2023/06/26 05:08:18;;;;;;;;;6.00;4.00;;;;;19.93;82.81;101880.84;5019300;28;47309;-79
2023/06/26 05:10:45;;;;;;;;;5.33;2.67;;;;;19.80;81.94;101876.47;5047317;28;45487;-78
2023/06/26 05:13:15;;;;;;;;;5.33;4.33;;;;;19.79;82.24;101886.34;5037007;28;45439;-79
2023/06/26 05:15:44;;;;;;;;;5.00;4.67;;;;;19.80;82.93;101889.88;5027664;28;45524;-79
2023/06/26 05:18:27;;;;;;;;;3.33;3.00;;;;;19.79;83.92;101891.72;5031001;28;45575;-78
2023/06/26 05:20:52;;;;;;;;;5.33;5.00;;;;;19.44;82.63;101851.13;5027665;28;45547;-79
2023/06/26 05:23:22;;;;;;;;;5.33;3.00;;;;;19.02;84.71;101779.75;5023242;28;45483;-79
2023/06/26 05:25:52;;;;;;;;;5.00;5.00;;;;;19.17;83.48;101821.63;5034973;28;45480;-79
2023/06/26 05:28:35;;;;;;;;;6.00;4.00;;;;;19.73;82.79;101927.84;5051049;28;46662;-79
2023/06/26 05:31:06;;;;;;;;;6.00;4.00;;;;;19.15;85.21;101793.19;5021056;28;45743;-79
2023/06/26 05:33:41;;;;;;;;;7.33;3.67;;;;;19.35;84.70;101834.78;5027358;28;45298;-79
2023/06/26 05:36:09;;;;;;;;;4.33;3.67;;;;;19.60;83.13;101873.28;5042234;28;45361;-78
2023/06/26 05:38:40;;;;;;;;;5.33;3.67;;;;;19.49;83.35;101842.78;5040770;28;47517;-79
2023/06/26 05:41:12;;;;;;;;;8.33;4.00;;;;;19.74;83.65;101866.97;5044608;28;45401;-78
2023/06/26 05:43:55;;;;;;;;;;;;;;;;;;;;;
2023/06/26 05:46:21;;;;;;;;;6.67;4.67;;;;;19.63;84.00;101851.59;5059896;28;72320;-78
2023/06/26 05:48:58;;;;;;;;;7.67;6.33;;;;;20.03;83.60;101916.84;5043490;28;45617;-79
2023/06/26 05:52:03;;;;;;;;;7.67;6.00;;;;;19.88;84.91;101855.28;5037782;28;45421;-79
2023/06/26 05:54:43;;;;;;;;;8.00;6.00;;;;;20.31;80.23;101902.41;5042404;28;45339;-79
2023/06/26 05:57:30;;;;;;;;;7.00;4.00;;;;;20.01;80.58;101862.41;5035990;28;45281;-79
2023/06/26 06:00:27;;;;;;;;;7.00;6.67;;;;;20.26;79.41;101888.38;5040336;28;48137;-79
2023/06/26 06:03:09;;;;;;;;;7.00;7.00;;;;;20.42;79.45;101901.66;5016618;28;45456;-79
2023/06/26 06:05:41;;;;;;;;;8.33;7.33;;;;;19.94;81.84;101825.34;5036564;28;45423;-79
2023/06/26 06:08:16;;;;;;;;;11.00;6.00;;;;;20.54;79.51;101933.03;5015823;28;45534;-79
2023/06/26 06:10:59;;;;;;;;;6.00;6.00;;;;;20.53;78.18;101905.28;5005957;28;47066;-79
2023/06/26 06:13:39;;;;;;;;;10.00;5.33;;;;;20.53;78.90;101918.72;5036491;28;45530;-79
2023/06/26 06:16:31;;;;;;;;;7.67;5.67;;;;;20.41;78.38;101865.84;5013710;28;45413;-78
2023/06/26 06:19:17;;;;;;;;;;;;;;;;;;;;;
2023/06/26 06:22:35;;;;;;;;;8.67;5.33;;;;;20.48;76.89;101874.34;5030873;28;76853;-78
2023/06/26 06:25:19;;;;;;;;;11.00;6.33;;;;;20.25;79.21;101806.94;5036542;28;45350;-78
2023/06/26 06:28:26;;;;;;;;;6.67;5.67;;;;;20.49;77.71;101855.41;5021265;28;45742;-78
2023/06/26 06:30:58;;;;;;;;;5.00;5.00;;;;;20.53;76.82;101882.94;5009261;28;45594;-78
2023/06/26 06:34:03;;;;;;;;;4.00;3.00;;;;;20.33;74.30;101843.16;5008150;28;46884;-78
2023/06/26 06:36:44;;;;;;;;;6.67;6.00;;;;;20.98;77.47;101946.81;5020951;28;45370;-78
2023/06/26 06:39:42;;;;;;;;;6.67;6.33;;;;;21.06;74.59;101965.97;5020645;28;45544;-78
2023/06/26 06:42:14;;;;;;;;;4.00;4.00;;;;;20.43;73.30;101861.22;5009898;28;45582;-80
2023/06/26 06:45:17;;;;;;;;;4.00;3.67;;;;;20.59;73.66;101877.09;5009830;28;45672;-79
2023/06/26 06:51:03;;;;;;;;;5.00;3.67;;;;;20.87;72.43;101858.00;5030391;28;45338;-79
2023/06/26 07:01:06;;;;;;;;;7.00;6.00;;;;;21.26;70.70;101957.34;5018525;28;45296;-79
2023/06/26 07:04:15;;;;;;;;;;;;;;;;;;;;;
2023/06/26 07:06:50;;;;;;;;;7.00;6.00;;;;;20.58;71.48;101870.88;5014079;28;72657;-80
2023/06/26 07:09:50;;;;;;;;;4.00;4.00;;;;;21.11;71.74;101930.69;5023127;28;47721;-81
2023/06/26 07:12:46;;;;;;;;;6.00;6.00;;;;;21.09;71.54;101898.53;5034531;28;45513;-81
2023/06/26 07:18:39;;;;;;;;;4.00;4.00;;;;;21.60;70.29;101919.81;5021737;28;45432;-80
2023/06/26 07:21:17;;;;;;;;;6.00;6.00;;;;;21.39;68.99;101881.94;5048059;28;46633;-81
2023/06/26 07:24:17;;;;;;;;;7.67;5.67;;;;;21.64;69.92;101972.47;5028698;28;45443;-80
2023/06/26 07:30:43;;;;;;;;;5.67;4.67;;;;;22.04;68.74;101911.94;5027212;28;45531;-81
2023/06/26 07:33:40;;;;;;;;;4.67;4.33;;;;;22.80;65.10;101981.44;5035917;28;46626;-80
2023/06/26 07:36:26;;;;;;;;;;;;;;;;;;;;;
2023/06/26 07:39:22;;;;;;;;;4.33;4.33;;;;;22.62;64.63;101916.28;5039509;28;68629;-80
2023/06/26 07:45:12;;;;;;;;;;;;;;;;;;;;;
2023/06/26 07:47:58;;;;;;;;;5.33;4.67;;;;;22.37;63.43;101983.06;5047229;28;72126;-80
2023/06/26 07:50:44;;;;;;;;;;;;;;;;;;;;;
2023/06/26 07:53:30;;;;;;;;;5.33;4.33;;;;;22.04;66.82;101952.34;5014626;28;73138;-80
2023/06/26 07:56:14;;;;;;;;;8.00;5.00;;;;;22.27;66.21;101945.19;5023488;28;45412;-80
2023/06/26 07:59:23;;;;;;;;;4.67;4.00;;;;;22.71;62.47;101965.94;5045289;28;45336;-80
2023/06/26 08:02:45;;;;;;;;;;;;;;;;;;;;;
2023/06/26 08:06:09;;;;;;;;;;;;;;;;;;;;;
2023/06/26 08:09:11;;;;;;;;;;;;;;;;;;;;;
2023/06/26 08:11:49;;;;;;;;;5.67;3.67;;;;;23.39;60.65;101910.91;5035448;28;72639;-80
2023/06/26 08:14:48;;;;;;;;;4.67;2.00;;;;;24.18;58.65;101996.97;5033521;28;45337;-80
2023/06/26 08:18:05;;;;;;;;;4.00;4.00;;;;;23.85;59.22;101892.56;5020524;28;45547;-80
2023/06/26 08:24:20;;;;;;;;;381.67;378.33;;;;;23.42;57.21;101918.78;5024161;28;45387;-80
2023/06/26 08:27:13;;;;;;;;;;;;;;;;;;;;;
2023/06/26 08:33:49;;;;;;;;;;;;;;;;;;;;;
2023/06/26 08:37:04;;;;;;;;;0.00;0.00;;;;;23.48;59.28;101983.09;4975737;28;72394;-79
2023/06/26 08:43:10;;;;;;;;;0.00;0.00;;;;;23.10;58.04;101906.06;5034499;28;45445;-79
2023/06/26 08:46:13;;;;;;;;;0.00;0.00;;;;;23.60;57.66;101957.75;5011062;28;46336;-79
2023/06/26 08:49:26;;;;;;;;;0.00;0.00;;;;;23.25;56.36;101907.53;5038331;28;45321;-79
2023/06/26 08:55:28;;;;;;;;;0.00;0.00;;;;;23.59;56.32;101992.00;4957582;28;45314;-80
2023/06/26 08:58:36;;;;;;;;;0.00;0.00;;;;;23.65;55.29;101918.59;4957271;28;46979;-80
2023/06/26 09:01:43;;;;;;;;;0.00;0.00;;;;;24.30;53.06;101999.50;4980978;28;45578;-80
2023/06/26 09:04:48;;;;;;;;;0.00;0.00;;;;;24.54;54.84;101984.84;5022883;28;45416;-80
2023/06/26 09:08:00;;;;;;;;;0.00;0.00;;;;;24.51;53.60;101939.13;5004619;28;45421;-79
2023/06/26 09:11:07;;;;;;;;;0.33;0.33;;;;;24.63;50.19;101982.19;5036629;28;47723;-79
2023/06/26 09:14:10;;;;;;;;;2.00;1.33;;;;;24.25;50.93;101930.56;5035411;28;45513;-79
2023/06/26 09:20:32;;;;;;;;;0.00;0.00;;;;;24.91;51.76;101928.34;5022609;28;45519;-80
2023/06/26 09:23:54;;;;;;;;;0.00;0.00;;;;;24.76;47.83;101928.69;5027942;28;46578;-80
2023/06/26 09:27:34;;;;;;;;;0.00;0.00;;;;;25.14;48.86;101970.44;5024946;28;45230;-80
2023/06/26 09:30:30;;;;;;;;;1.00;1.00;;;;;24.94;50.44;101909.97;5023684;28;45514;-80
2023/06/26 09:42:47;;;;;;;;;0.00;0.00;;;;;25.63;48.29;101994.81;5037742;28;45484;-79
2023/06/26 09:46:04;;;;;;;;;;;;;;;;;;;;;
2023/06/26 09:48:47;;;;;;;;;1.00;0.00;;;;;25.31;47.91;101902.06;5001769;28;74325;-79
2023/06/26 09:54:51;;;;;;;;;;;;;;;;;;;;;
2023/06/26 09:57:44;;;;;;;;;;;;;;;;;;;;;
2023/06/26 10:00:36;;;;;;;;;0.00;0.00;;;;;25.40;46.91;101955.41;5013742;28;75125;-81
2023/06/26 10:03:32;;;;;;;;;1.00;1.00;;;;;25.38;46.15;101987.19;4997642;28;45310;-80
2023/06/26 10:07:07;;;;;;;;;1.00;0.00;;;;;25.35;47.24;101985.63;5023918;28;45484;-80
2023/06/26 10:10:20;;;;;;;;;0.00;0.00;;;;;24.73;46.37;101928.09;4956860;28;45611;-82
2023/06/26 10:13:12;;;;;;;;;0.00;0.00;;;;;25.03;46.29;102009.28;4904774;28;47049;-81
2023/06/26 10:16:00;;;;;;;;;1.00;0.00;;;;;24.82;46.38;101916.50;4943524;28;45637;-81
2023/06/26 10:18:28;;;;;;;;;0.33;0.33;;;;;25.40;45.76;101990.63;4940868;28;45489;-81
2023/06/26 10:20:56;;;;;;;;;0.00;0.00;;;;;25.02;44.80;101955.31;4946595;28;45683;-81
2023/06/26 10:23:57;;;;;;;;;1.00;1.00;;;;;25.34;44.79;101954.09;4958343;28;46436;-80
2023/06/26 10:26:39;;;;;;;;;0.00;0.00;;;;;25.75;44.35;101973.88;5006729;28;45461;-80
2023/06/26 10:29:33;;;;;;;;;0.00;0.00;;;;;25.65;43.58;101922.38;5002334;28;45330;-80
2023/06/26 10:32:07;;;;;;;;;0.00;0.00;;;;;25.62;43.67;101932.66;5032257;28;45628;-80
2023/06/26 10:41:44;;;;;;;;;0.00;0.00;;;;;25.80;43.20;102028.50;5013902;28;45440;-80
2023/06/26 10:44:39;;;;;;;;;0.00;0.00;;;;;25.83;42.51;101988.44;5006811;28;45323;-80
2023/06/26 10:50:43;;;;;;;;;0.00;0.00;;;;;24.94;42.68;101914.53;5001963;28;45521;-80
2023/06/26 10:53:26;;;;;;;;;0.00;0.00;;;;;25.50;43.08;102002.34;5022082;28;45303;-80
2023/06/26 11:03:01;;;;;;;;;;;;;;;;;;;;;
2023/06/26 11:05:55;;;;;;;;;3.00;3.00;;;;;26.79;42.78;101963.88;5014330;28;68375;-80
2023/06/26 11:08:44;;;;;;;;;;;;;;;;;;;;;
2023/06/26 11:11:16;;;;;;;;;1.00;0.00;;;;;26.82;39.61;101914.75;4987136;28;74496;-81
2023/06/26 11:14:06;;;;;;;;;2.67;2.33;;;;;27.40;37.80;101960.56;4999864;28;45437;-80
2023/06/26 11:17:14;;;;;;;;;1.00;1.00;;;;;27.43;39.53;101909.50;4981234;28;45430;-81
2023/06/26 11:20:18;;;;;;;;;0.00;0.00;;;;;27.81;40.16;101943.66;5010079;28;47146;-81
2023/06/26 11:23:17;;;;;;;;;;;;;;;;;;;;;
2023/06/26 11:26:39;;;;;;;;;1.00;0.00;;;;;27.95;39.70;101934.97;5033873;28;72906;-81
2023/06/26 11:36:20;;;;;;;;;1.00;0.00;;;;;27.20;38.32;101921.78;5018103;28;45675;-81
2023/06/26 11:39:27;;;;;;;;;5.00;3.33;;;;;27.75;38.32;102011.41;5008814;28;45570;-81
2023/06/26 11:42:13;;;;;;;;;0.33;0.00;;;;;27.33;38.18;101962.19;5029072;28;45338;-81
2023/06/26 11:45:19;;;;;;;;;;;;;;;;;;;;;
2023/06/26 11:47:57;;;;;;;;;0.00;0.00;;;;;27.16;38.99;101936.69;5019528;28;75102;-80
2023/06/26 11:50:41;;;;;;;;;;;;;;;;;;;;;
2023/06/26 11:57:02;;;;;;;;;1.00;0.00;;;;;28.27;39.57;102009.75;4964755;28;45573;-81
2023/06/26 11:59:34;;;;;;;;;0.00;0.00;;;;;28.21;39.27;101915.97;4974720;28;45469;-81
2023/06/26 12:06:06;;;;;;;;;1.00;0.00;;;;;27.83;37.61;102008.78;4983780;28;45414;-81
2023/06/26 12:08:50;;;;;;;;;0.00;0.00;;;;;27.59;39.04;101943.28;4958490;28;45415;-81
2023/06/26 12:11:18;;;;;;;;;4.00;2.67;;;;;27.91;36.76;101952.59;4964062;28;46589;-80
2023/06/26 12:13:43;;;;;;;;;0.00;0.00;;;;;28.29;37.82;101992.22;5012358;28;45484;-82
2023/06/26 12:16:09;;;;;;;;;0.00;0.00;;;;;28.47;38.90;101969.56;5031771;28;45485;-80
2023/06/26 12:18:35;;;;;;;;;0.00;0.00;;;;;28.81;38.06;101955.00;5033794;28;45359;-81
2023/06/26 12:21:01;;;;;;;;;0.00;0.00;;;;;28.80;34.43;101987.81;5027370;28;45481;-80
2023/06/26 12:23:33;;;;;;;;;0.00;0.00;;;;;28.88;37.28;101987.88;5038376;28;45471;-81
2023/06/26 12:25:58;;;;;;;;;0.00;0.00;;;;;28.95;38.94;101981.63;5028520;28;45380;-81
2023/06/26 12:28:24;;;;;;;;;2.00;1.00;;;;;28.70;35.65;101971.59;5020367;28;45640;-81
2023/06/26 12:35:04;;;;;;;;;;;;;;;;;;;;;
2023/06/26 12:37:53;;;;;;;;;0.00;0.00;;;;;28.27;37.75;101928.09;5016477;28;69392;-81
2023/06/26 12:41:03;;;;;;;;;;;;;;;;;;;;;
2023/06/26 12:46:36;;;;;;;;;0.00;0.00;;;;;28.93;34.92;101948.22;5045953;28;45491;-81
2023/06/26 12:49:02;;;;;;;;;0.00;0.00;;;;;29.14;34.44;101942.34;5040171;28;45373;-81
2023/06/26 12:51:27;;;;;;;;;4.00;4.00;;;;;28.93;34.73;101966.44;5046438;28;45496;-81
2023/06/26 12:53:53;;;;;;;;;0.00;0.00;;;;;28.82;37.33;101988.53;5039503;28;46171;-80
2023/06/26 12:56:19;;;;;;;;;1.00;0.00;;;;;29.06;36.75;101995.97;5056028;28;45364;-81
2023/06/26 12:58:45;;;;;;;;;6.33;6.33;;;;;29.19;35.98;101975.41;5050955;28;45262;-81
2023/06/26 13:01:13;;;;;;;;;0.00;0.00;;;;;29.33;36.86;101943.97;5038233;28;45325;-81
2023/06/26 13:03:38;;;;;;;;;1.00;0.00;;;;;29.80;34.31;101957.84;5048448;28;45419;-81
2023/06/26 13:06:05;;;;;;;;;0.00;0.00;;;;;30.07;33.47;101986.72;5046204;28;45491;-81
2023/06/26 13:08:31;;;;;;;;;0.00;0.00;;;;;30.17;33.38;101955.47;5037074;28;45398;-81
2023/06/26 13:10:56;;;;;;;;;0.00;0.00;;;;;30.33;34.19;101966.38;5044976;28;45325;-81
2023/06/26 13:13:22;;;;;;;;;3.00;3.00;;;;;30.13;33.23;101958.75;5055640;28;46589;-81
2023/06/26 13:15:47;;;;;;;;;0.00;0.00;;;;;29.98;34.49;101970.34;5053921;28;45411;-82
2023/06/26 13:18:12;;;;;;;;;0.00;0.00;;;;;29.62;34.21;101982.53;5057434;28;45353;-81
2023/06/26 13:20:47;;;;;;;;;3.00;3.00;;;;;29.59;31.39;101968.38;5056587;28;45519;-82
2023/06/26 13:23:12;;;;;;;;;0.00;0.00;;;;;29.45;31.56;101967.16;5049312;28;45616;-81
2023/06/26 13:26:12;;;;;;;;;0.00;0.00;;;;;29.53;33.08;101931.75;5037159;28;45616;-81
2023/06/26 13:29:15;;;;;;;;;3.67;3.00;;;;;29.74;30.94;101925.81;5012166;28;45523;-82
2023/06/26 13:35:57;;;;;;;;;0.00;0.00;;;;;29.68;31.97;101951.03;5032119;28;45399;-81
2023/06/26 13:39:03;;;;;;;;;0.00;0.00;;;;;29.48;31.88;101911.47;5028456;28;45742;-81
2023/06/26 13:41:55;;;;;;;;;3.00;3.00;;;;;30.31;32.36;101976.63;4976776;28;45587;-81
2023/06/26 13:48:29;;;;;;;;;0.00;0.00;;;;;31.06;31.61;102006.38;5011741;28;46273;-81
2023/06/26 13:51:28;;;;;;;;;0.00;0.00;;;;;31.36;33.48;101979.09;5003948;28;45532;-82
2023/06/26 13:54:42;;;;;;;;;0.00;0.00;;;;;31.52;32.05;101963.63;5031219;28;45356;-82
2023/06/26 13:57:37;;;;;;;;;;;;;;;;;;;;;
2023/06/26 14:00:54;;;;;;;;;0.00;0.00;;;;;31.42;30.44;101999.38;5029268;28;75261;-82
2023/06/26 14:04:08;;;;;;;;;0.00;0.00;;;;;30.54;31.73;101934.97;5015545;28;45559;-82
2023/06/26 14:07:07;;;;;;;;;0.00;0.00;;;;;30.23;30.86;101926.66;4983939;28;45326;-81
2023/06/26 14:13:15;;;;;;;;;2.00;2.00;;;;;30.54;31.57;101903.06;4937870;28;45936;-82
2023/06/26 14:15:52;;;;;;;;;3.00;2.00;;;;;30.63;33.33;101895.72;5037502;28;45382;-81
2023/06/26 14:18:38;;;;;;;;;6.00;4.00;;;;;30.87;30.90;101914.72;5035773;28;45351;-82
2023/06/26 14:22:01;;;;;;;;;0.00;0.00;;;;;30.72;30.56;101913.75;5013630;28;45525;-81
2023/06/26 14:25:09;;;;;;;;;0.00;0.00;;;;;31.31;34.04;101984.25;4967487;28;45567;-81
2023/06/26 14:31:12;;;;;;;;;;;;;;;;;;;;;
2023/06/26 14:33:37;;;;;;;;;0.67;0.00;;;;;30.92;30.34;101943.19;4964769;28;73900;-82
2023/06/26 14:36:45;;;;;;;;;;;;;;;;;;;;;
2023/06/26 14:39:20;;;;;;;;;0.00;0.00;;;;;30.13;27.82;101934.19;5022181;28;72153;-82
2023/06/26 14:41:47;;;;;;;;;3.00;0.00;;;;;30.21;32.51;101986.03;5014377;28;45415;-82
2023/06/26 14:44:53;;;;;;;;;0.00;0.00;;;;;29.75;30.39;101927.50;5015588;28;45658;-81
2023/06/26 14:50:56;;;;;;;;;0.00;0.00;;;;;30.17;30.73;101935.56;5033300;28;45444;-82
2023/06/26 14:54:00;;;;;;;;;0.00;0.00;;;;;30.84;28.87;102003.38;5026199;28;45437;-81
2023/06/26 14:56:40;;;;;;;;;0.00;0.00;;;;;30.77;30.30;102001.50;5015166;28;45576;-82
2023/06/26 14:59:07;;;;;;;;;0.33;0.00;;;;;30.71;29.40;101988.53;5020381;28;46149;-82
2023/06/26 15:01:46;;;;;;;;;3.00;1.00;;;;;30.82;29.46;102016.34;5023358;28;44798;-82
2023/06/26 15:04:11;;;;;;;;;0.00;0.00;;;;;30.33;31.28;101977.31;5040904;28;45348;-82
2023/06/26 15:10:32;;;;;;;;;1.00;0.00;;;;;29.73;30.72;101940.47;5000630;28;46032;-82
2023/06/26 15:13:41;;;;;;;;;0.00;0.00;;;;;29.80;30.71;101939.63;4946788;28;45494;-82
2023/06/26 15:16:34;;;;;;;;;0.00;0.00;;;;;29.12;30.23;101943.53;4951510;28;45360;-81
2023/06/26 15:23:04;;;;;;;;;;;;;;;;;;;;;
2023/06/26 15:26:19;;;;;;;;;10.67;7.33;;;;;28.57;33.08;101981.19;4933992;28;74154;-82
2023/06/26 15:28:59;;;;;;;;;0.00;0.00;;;;;28.42;33.19;101918.31;4959353;28;45574;-81
2023/06/26 15:32:10;;;;;;;;;0.00;0.00;;;;;28.54;33.60;101913.44;4939060;28;45597;-82
2023/06/26 15:35:01;;;;;;;;;0.00;0.00;;;;;28.66;33.34;101921.22;4950539;28;46201;-81
2023/06/26 15:37:55;;;;;;;;;;;;;;;;;;;;;
2023/06/26 15:41:14;;;;;;;;;;;;;;;;;;;;;
2023/06/26 15:43:45;;;;;;;;;1.00;1.00;;;;;29.76;32.51;101970.13;4988568;28;72671;-82
2023/06/26 15:50:05;;;;;;;;;0.00;0.00;;;;;28.71;32.14;101918.84;4966739;28;45481;-82